sensor_id;sensor_type;location;lat;lon;timestamp;P1;durP1;ratioP1;P2;durP2;ratioP2
38034;SDS011;23841;48.524;1.342;2024-01-15T00:01:41;13.82;;;7.22;;
38034;SDS011;23841;48.524;1.342;2024-01-15T00:04:09;10.60;;;6.15;;
38034;SDS011;23841;48.524;1.342;2024-01-15T00:06:35;14.20;;;7.57;;
38034;SDS011;23841;48.524;1.342;2024-01-15T00:09:00;12.63;;;7.22;;
38034;SDS011;23841;48.524;1.342;2024-01-15T00:11:26;14.75;;;8.32;;
38034;SDS011;23841;48.524;1.342;2024-01-15T00:13:51;13.32;;;7.28;;
38034;SDS011;23841;48.524;1.342;2024-01-15T00:16:17;13.90;;;7.78;;
38034;SDS011;23841;48.524;1.342;2024-01-15T00:18:42;13.75;;;7.70;;
38034;SDS011;23841;48.524;1.342;2024-01-15T00:21:08;13.40;;;7.07;;
38034;SDS011;23841;48.524;1.342;2024-01-15T00:23:33;12.90;;;7.43;;
38034;SDS011;23841;48.524;1.342;2024-01-15T00:25:58;13.57;;;7.57;;
38034;SDS011;23841;48.524;1.342;2024-01-15T00:28:24;13.00;;;7.57;;
38034;SDS011;23841;48.524;1.342;2024-01-15T00:30:49;12.23;;;7.53;;
38034;SDS011;23841;48.524;1.342;2024-01-15T00:33:15;14.02;;;7.72;;
38034;SDS011;23841;48.524;1.342;2024-01-15T00:35:40;14.73;;;8.05;;
38034;SDS011;23841;48.524;1.342;2024-01-15T00:38:06;14.43;;;8.00;;
38034;SDS011;23841;48.524;1.342;2024-01-15T00:40:32;14.23;;;8.18;;
38034;SDS011;23841;48.524;1.342;2024-01-15T00:42:58;13.77;;;7.57;;
38034;SDS011;23841;48.524;1.342;2024-01-15T00:45:23;13.82;;;7.75;;
38034;SDS011;23841;48.524;1.342;2024-01-15T00:47:49;15.05;;;7.97;;
38034;SDS011;23841;48.524;1.342;2024-01-15T00:50:14;14.32;;;8.93;;
38034;SDS011;23841;48.524;1.342;2024-01-15T00:52:40;16.27;;;8.32;;
38034;SDS011;23841;48.524;1.342;2024-01-15T00:55:05;16.00;;;8.57;;
38034;SDS011;23841;48.524;1.342;2024-01-15T00:57:31;16.27;;;8.45;;
38034;SDS011;23841;48.524;1.342;2024-01-15T00:59:56;16.58;;;8.52;;
38034;SDS011;23841;48.524;1.342;2024-01-15T01:02:22;15.20;;;8.88;;
38034;SDS011;23841;48.524;1.342;2024-01-15T01:04:47;14.52;;;8.27;;
38034;SDS011;23841;48.524;1.342;2024-01-15T01:07:13;17.15;;;8.80;;
38034;SDS011;23841;48.524;1.342;2024-01-15T01:09:38;15.05;;;7.97;;
38034;SDS011;23841;48.524;1.342;2024-01-15T01:12:04;14.77;;;8.80;;
38034;SDS011;23841;48.524;1.342;2024-01-15T01:14:29;16.33;;;8.40;;
38034;SDS011;23841;48.524;1.342;2024-01-15T01:16:55;16.13;;;8.85;;
38034;SDS011;23841;48.524;1.342;2024-01-15T01:19:20;17.00;;;9.27;;
38034;SDS011;23841;48.524;1.342;2024-01-15T01:21:45;15.10;;;8.82;;
38034;SDS011;23841;48.524;1.342;2024-01-15T01:24:11;14.93;;;8.23;;
38034;SDS011;23841;48.524;1.342;2024-01-15T01:26:36;15.80;;;9.13;;
38034;SDS011;23841;48.524;1.342;2024-01-15T01:29:03;16.23;;;9.13;;
38034;SDS011;23841;48.524;1.342;2024-01-15T01:31:29;15.30;;;8.77;;
38034;SDS011;23841;48.524;1.342;2024-01-15T01:33:54;14.93;;;8.20;;
38034;SDS011;23841;48.524;1.342;2024-01-15T01:36:19;14.20;;;8.30;;
38034;SDS011;23841;48.524;1.342;2024-01-15T01:38:45;14.85;;;8.30;;
38034;SDS011;23841;48.524;1.342;2024-01-15T01:41:10;14.85;;;7.82;;
38034;SDS011;23841;48.524;1.342;2024-01-15T01:43:36;14.48;;;7.80;;
38034;SDS011;23841;48.524;1.342;2024-01-15T01:46:01;16.35;;;9.02;;
38034;SDS011;23841;48.524;1.342;2024-01-15T01:48:28;14.50;;;8.52;;
38034;SDS011;23841;48.524;1.342;2024-01-15T01:50:57;13.43;;;7.32;;
38034;SDS011;23841;48.524;1.342;2024-01-15T01:53:24;13.70;;;7.80;;
38034;SDS011;23841;48.524;1.342;2024-01-15T01:55:54;14.93;;;7.35;;
38034;SDS011;23841;48.524;1.342;2024-01-15T01:58:22;12.32;;;6.80;;
38034;SDS011;23841;48.524;1.342;2024-01-15T02:00:48;14.20;;;6.63;;
38034;SDS011;23841;48.524;1.342;2024-01-15T02:03:15;13.32;;;7.88;;
38034;SDS011;23841;48.524;1.342;2024-01-15T02:05:41;11.25;;;6.80;;
38034;SDS011;23841;48.524;1.342;2024-01-15T02:08:09;12.68;;;7.22;;
38034;SDS011;23841;48.524;1.342;2024-01-15T02:10:35;11.77;;;6.85;;
38034;SDS011;23841;48.524;1.342;2024-01-15T02:13:00;14.80;;;7.97;;
38034;SDS011;23841;48.524;1.342;2024-01-15T02:15:26;14.73;;;8.10;;
38034;SDS011;23841;48.524;1.342;2024-01-15T02:18:01;15.30;;;7.88;;
38034;SDS011;23841;48.524;1.342;2024-01-15T02:20:28;11.60;;;6.72;;
38034;SDS011;23841;48.524;1.342;2024-01-15T02:23:01;11.90;;;6.75;;
38034;SDS011;23841;48.524;1.342;2024-01-15T02:25:47;11.95;;;6.68;;
38034;SDS011;23841;48.524;1.342;2024-01-15T02:28:14;11.07;;;6.25;;
38034;SDS011;23841;48.524;1.342;2024-01-15T02:30:41;13.27;;;7.35;;
38034;SDS011;23841;48.524;1.342;2024-01-15T02:33:08;11.50;;;6.85;;
38034;SDS011;23841;48.524;1.342;2024-01-15T02:35:35;12.43;;;7.13;;
38034;SDS011;23841;48.524;1.342;2024-01-15T02:38:04;11.20;;;6.65;;
38034;SDS011;23841;48.524;1.342;2024-01-15T02:40:30;11.65;;;6.18;;
38034;SDS011;23841;48.524;1.342;2024-01-15T02:42:57;10.43;;;6.50;;
38034;SDS011;23841;48.524;1.342;2024-01-15T02:45:22;11.70;;;6.57;;
38034;SDS011;23841;48.524;1.342;2024-01-15T02:47:48;12.20;;;7.10;;
38034;SDS011;23841;48.524;1.342;2024-01-15T02:50:14;12.35;;;6.68;;
38034;SDS011;23841;48.524;1.342;2024-01-15T02:52:40;10.90;;;6.50;;
38034;SDS011;23841;48.524;1.342;2024-01-15T02:55:07;11.45;;;6.70;;
38034;SDS011;23841;48.524;1.342;2024-01-15T02:57:33;11.18;;;6.63;;
38034;SDS011;23841;48.524;1.342;2024-01-15T02:59:58;12.75;;;7.13;;
38034;SDS011;23841;48.524;1.342;2024-01-15T03:02:24;13.43;;;7.20;;
38034;SDS011;23841;48.524;1.342;2024-01-15T03:04:49;12.13;;;6.50;;
38034;SDS011;23841;48.524;1.342;2024-01-15T03:07:15;12.45;;;6.82;;
38034;SDS011;23841;48.524;1.342;2024-01-15T03:09:40;9.27;;;5.72;;
38034;SDS011;23841;48.524;1.342;2024-01-15T03:12:06;10.05;;;5.65;;
38034;SDS011;23841;48.524;1.342;2024-01-15T03:14:32;11.82;;;6.65;;
38034;SDS011;23841;48.524;1.342;2024-01-15T03:16:57;10.48;;;5.93;;
38034;SDS011;23841;48.524;1.342;2024-01-15T03:19:23;11.73;;;6.22;;
38034;SDS011;23841;48.524;1.342;2024-01-15T03:21:48;10.57;;;6.30;;
38034;SDS011;23841;48.524;1.342;2024-01-15T03:24:13;11.68;;;6.25;;
38034;SDS011;23841;48.524;1.342;2024-01-15T03:26:39;10.90;;;6.10;;
38034;SDS011;23841;48.524;1.342;2024-01-15T03:29:05;10.55;;;6.15;;
38034;SDS011;23841;48.524;1.342;2024-01-15T03:31:31;11.05;;;5.78;;
38034;SDS011;23841;48.524;1.342;2024-01-15T03:33:56;10.88;;;6.13;;
38034;SDS011;23841;48.524;1.342;2024-01-15T03:36:21;12.70;;;5.85;;
38034;SDS011;23841;48.524;1.342;2024-01-15T03:38:47;10.10;;;5.50;;
38034;SDS011;23841;48.524;1.342;2024-01-15T03:41:13;11.07;;;5.88;;
38034;SDS011;23841;48.524;1.342;2024-01-15T03:43:38;10.88;;;5.85;;
38034;SDS011;23841;48.524;1.342;2024-01-15T03:46:05;10.30;;;5.97;;
38034;SDS011;23841;48.524;1.342;2024-01-15T03:48:30;11.10;;;6.15;;
38034;SDS011;23841;48.524;1.342;2024-01-15T03:50:56;10.68;;;6.25;;
38034;SDS011;23841;48.524;1.342;2024-01-15T03:53:21;10.00;;;5.63;;
38034;SDS011;23841;48.524;1.342;2024-01-15T03:55:47;11.63;;;6.03;;
38034;SDS011;23841;48.524;1.342;2024-01-15T03:58:12;8.55;;;5.45;;
38034;SDS011;23841;48.524;1.342;2024-01-15T04:00:39;9.52;;;5.90;;
38034;SDS011;23841;48.524;1.342;2024-01-15T04:03:05;10.48;;;5.80;;
38034;SDS011;23841;48.524;1.342;2024-01-15T04:05:31;10.00;;;5.40;;
38034;SDS011;23841;48.524;1.342;2024-01-15T04:07:56;10.32;;;5.75;;
38034;SDS011;23841;48.524;1.342;2024-01-15T04:10:21;9.45;;;5.40;;
38034;SDS011;23841;48.524;1.342;2024-01-15T04:12:47;11.00;;;5.65;;
38034;SDS011;23841;48.524;1.342;2024-01-15T04:15:12;9.23;;;5.47;;
38034;SDS011;23841;48.524;1.342;2024-01-15T04:17:38;10.00;;;6.10;;
38034;SDS011;23841;48.524;1.342;2024-01-15T04:20:04;10.05;;;5.70;;
38034;SDS011;23841;48.524;1.342;2024-01-15T04:22:31;9.43;;;5.80;;
38034;SDS011;23841;48.524;1.342;2024-01-15T04:24:56;11.25;;;6.30;;
38034;SDS011;23841;48.524;1.342;2024-01-15T04:27:21;11.50;;;6.57;;
38034;SDS011;23841;48.524;1.342;2024-01-15T04:29:47;10.82;;;6.07;;
38034;SDS011;23841;48.524;1.342;2024-01-15T04:32:13;12.20;;;6.57;;
38034;SDS011;23841;48.524;1.342;2024-01-15T04:34:38;11.32;;;6.43;;
38034;SDS011;23841;48.524;1.342;2024-01-15T04:37:03;11.77;;;6.53;;
38034;SDS011;23841;48.524;1.342;2024-01-15T04:39:29;13.13;;;7.43;;
38034;SDS011;23841;48.524;1.342;2024-01-15T04:41:54;14.38;;;8.13;;
38034;SDS011;23841;48.524;1.342;2024-01-15T04:44:20;13.07;;;6.75;;
38034;SDS011;23841;48.524;1.342;2024-01-15T04:46:45;12.45;;;6.70;;
38034;SDS011;23841;48.524;1.342;2024-01-15T04:49:11;12.48;;;7.30;;
38034;SDS011;23841;48.524;1.342;2024-01-15T04:51:37;14.80;;;7.20;;
38034;SDS011;23841;48.524;1.342;2024-01-15T04:54:02;16.02;;;8.23;;
38034;SDS011;23841;48.524;1.342;2024-01-15T04:56:28;14.55;;;7.85;;
38034;SDS011;23841;48.524;1.342;2024-01-15T04:58:53;15.30;;;8.20;;
38034;SDS011;23841;48.524;1.342;2024-01-15T05:01:19;15.25;;;8.65;;
38034;SDS011;23841;48.524;1.342;2024-01-15T05:03:44;15.90;;;8.25;;
38034;SDS011;23841;48.524;1.342;2024-01-15T05:06:09;15.07;;;8.38;;
38034;SDS011;23841;48.524;1.342;2024-01-15T05:08:35;16.25;;;8.75;;
38034;SDS011;23841;48.524;1.342;2024-01-15T05:11:00;14.32;;;8.55;;
38034;SDS011;23841;48.524;1.342;2024-01-15T05:13:26;17.73;;;9.98;;
38034;SDS011;23841;48.524;1.342;2024-01-15T05:15:51;16.98;;;9.18;;
38034;SDS011;23841;48.524;1.342;2024-01-15T05:18:17;16.33;;;8.73;;
38034;SDS011;23841;48.524;1.342;2024-01-15T05:20:42;17.52;;;9.00;;
38034;SDS011;23841;48.524;1.342;2024-01-15T05:23:08;19.38;;;9.68;;
38034;SDS011;23841;48.524;1.342;2024-01-15T05:25:34;17.80;;;9.60;;
38034;SDS011;23841;48.524;1.342;2024-01-15T05:27:59;18.20;;;9.68;;
38034;SDS011;23841;48.524;1.342;2024-01-15T05:30:25;17.65;;;9.90;;
38034;SDS011;23841;48.524;1.342;2024-01-15T05:32:50;17.70;;;9.07;;
38034;SDS011;23841;48.524;1.342;2024-01-15T05:35:16;18.27;;;9.52;;
38034;SDS011;23841;48.524;1.342;2024-01-15T05:37:43;18.48;;;9.73;;
38034;SDS011;23841;48.524;1.342;2024-01-15T05:40:11;18.38;;;9.48;;
38034;SDS011;23841;48.524;1.342;2024-01-15T05:42:38;18.70;;;8.90;;
38034;SDS011;23841;48.524;1.342;2024-01-15T05:45:04;18.42;;;9.13;;
38034;SDS011;23841;48.524;1.342;2024-01-15T05:47:30;16.63;;;9.65;;
38034;SDS011;23841;48.524;1.342;2024-01-15T05:49:56;19.20;;;9.10;;
38034;SDS011;23841;48.524;1.342;2024-01-15T05:52:22;18.40;;;9.93;;
38034;SDS011;23841;48.524;1.342;2024-01-15T05:54:48;18.63;;;9.60;;
38034;SDS011;23841;48.524;1.342;2024-01-15T05:57:14;17.75;;;9.57;;
38034;SDS011;23841;48.524;1.342;2024-01-15T05:59:40;18.50;;;9.35;;
38034;SDS011;23841;48.524;1.342;2024-01-15T06:02:05;17.88;;;9.88;;
38034;SDS011;23841;48.524;1.342;2024-01-15T06:04:30;18.50;;;10.30;;
38034;SDS011;23841;48.524;1.342;2024-01-15T06:06:56;19.13;;;9.73;;
38034;SDS011;23841;48.524;1.342;2024-01-15T06:09:21;18.83;;;9.70;;
38034;SDS011;23841;48.524;1.342;2024-01-15T06:11:47;20.70;;;10.50;;
38034;SDS011;23841;48.524;1.342;2024-01-15T06:14:12;18.83;;;10.52;;
38034;SDS011;23841;48.524;1.342;2024-01-15T06:16:37;17.75;;;9.32;;
38034;SDS011;23841;48.524;1.342;2024-01-15T06:19:03;18.67;;;9.90;;
38034;SDS011;23841;48.524;1.342;2024-01-15T06:21:28;18.85;;;10.25;;
38034;SDS011;23841;48.524;1.342;2024-01-15T06:23:54;19.10;;;10.45;;
38034;SDS011;23841;48.524;1.342;2024-01-15T06:26:21;18.10;;;9.70;;
38034;SDS011;23841;48.524;1.342;2024-01-15T06:28:47;18.77;;;9.48;;
38034;SDS011;23841;48.524;1.342;2024-01-15T06:31:13;15.93;;;9.20;;
38034;SDS011;23841;48.524;1.342;2024-01-15T06:33:38;18.83;;;9.75;;
38034;SDS011;23841;48.524;1.342;2024-01-15T06:36:04;17.58;;;9.68;;
38034;SDS011;23841;48.524;1.342;2024-01-15T06:38:30;17.83;;;9.98;;
38034;SDS011;23841;48.524;1.342;2024-01-15T06:40:55;18.85;;;10.00;;
38034;SDS011;23841;48.524;1.342;2024-01-15T06:43:21;18.23;;;10.10;;
38034;SDS011;23841;48.524;1.342;2024-01-15T06:45:46;18.02;;;10.35;;
38034;SDS011;23841;48.524;1.342;2024-01-15T06:48:12;19.48;;;10.38;;
38034;SDS011;23841;48.524;1.342;2024-01-15T06:50:39;16.67;;;9.35;;
38034;SDS011;23841;48.524;1.342;2024-01-15T06:53:05;18.58;;;10.02;;
38034;SDS011;23841;48.524;1.342;2024-01-15T06:55:30;16.73;;;9.35;;
38034;SDS011;23841;48.524;1.342;2024-01-15T06:57:56;17.80;;;10.00;;
38034;SDS011;23841;48.524;1.342;2024-01-15T07:00:21;19.50;;;10.85;;
38034;SDS011;23841;48.524;1.342;2024-01-15T07:02:47;17.77;;;10.32;;
38034;SDS011;23841;48.524;1.342;2024-01-15T07:05:12;18.30;;;9.90;;
38034;SDS011;23841;48.524;1.342;2024-01-15T07:07:37;19.50;;;10.55;;
38034;SDS011;23841;48.524;1.342;2024-01-15T07:10:03;17.92;;;10.07;;
38034;SDS011;23841;48.524;1.342;2024-01-15T07:12:30;17.23;;;9.75;;
38034;SDS011;23841;48.524;1.342;2024-01-15T07:14:56;17.77;;;8.73;;
38034;SDS011;23841;48.524;1.342;2024-01-15T07:17:21;21.00;;;10.20;;
38034;SDS011;23841;48.524;1.342;2024-01-15T07:19:47;20.58;;;9.57;;
38034;SDS011;23841;48.524;1.342;2024-01-15T07:22:12;18.95;;;9.75;;
38034;SDS011;23841;48.524;1.342;2024-01-15T07:24:38;15.57;;;9.57;;
38034;SDS011;23841;48.524;1.342;2024-01-15T07:27:03;17.30;;;8.80;;
38034;SDS011;23841;48.524;1.342;2024-01-15T07:29:30;15.93;;;9.02;;
38034;SDS011;23841;48.524;1.342;2024-01-15T07:31:58;17.75;;;8.93;;
38034;SDS011;23841;48.524;1.342;2024-01-15T07:34:23;17.10;;;9.13;;
38034;SDS011;23841;48.524;1.342;2024-01-15T07:36:49;15.60;;;8.23;;
38034;SDS011;23841;48.524;1.342;2024-01-15T07:39:14;15.70;;;8.52;;
38034;SDS011;23841;48.524;1.342;2024-01-15T07:41:39;15.10;;;7.75;;
38034;SDS011;23841;48.524;1.342;2024-01-15T07:44:05;15.73;;;8.50;;
38034;SDS011;23841;48.524;1.342;2024-01-15T07:46:30;18.08;;;9.15;;
38034;SDS011;23841;48.524;1.342;2024-01-15T07:48:56;15.85;;;7.72;;
38034;SDS011;23841;48.524;1.342;2024-01-15T07:51:23;13.63;;;7.25;;
38034;SDS011;23841;48.524;1.342;2024-01-15T07:53:49;14.40;;;8.10;;
38034;SDS011;23841;48.524;1.342;2024-01-15T07:56:15;16.30;;;8.15;;
38034;SDS011;23841;48.524;1.342;2024-01-15T07:58:41;14.25;;;7.68;;
38034;SDS011;23841;48.524;1.342;2024-01-15T08:01:07;14.02;;;7.82;;
38034;SDS011;23841;48.524;1.342;2024-01-15T08:03:32;15.48;;;8.52;;
38034;SDS011;23841;48.524;1.342;2024-01-15T08:05:58;14.20;;;8.15;;
38034;SDS011;23841;48.524;1.342;2024-01-15T08:08:24;15.70;;;7.85;;
38034;SDS011;23841;48.524;1.342;2024-01-15T08:10:51;14.88;;;7.97;;
38034;SDS011;23841;48.524;1.342;2024-01-15T08:13:18;15.70;;;8.57;;
38034;SDS011;23841;48.524;1.342;2024-01-15T08:15:43;15.70;;;7.82;;
38034;SDS011;23841;48.524;1.342;2024-01-15T08:18:09;14.13;;;8.60;;
38034;SDS011;23841;48.524;1.342;2024-01-15T08:20:34;14.90;;;8.57;;
38034;SDS011;23841;48.524;1.342;2024-01-15T08:23:00;12.80;;;7.45;;
38034;SDS011;23841;48.524;1.342;2024-01-15T08:25:25;13.77;;;7.57;;
38034;SDS011;23841;48.524;1.342;2024-01-15T08:27:51;13.35;;;7.07;;
38034;SDS011;23841;48.524;1.342;2024-01-15T08:30:17;13.70;;;7.38;;
38034;SDS011;23841;48.524;1.342;2024-01-15T08:32:44;12.18;;;6.60;;
38034;SDS011;23841;48.524;1.342;2024-01-15T08:35:09;13.77;;;7.15;;
38034;SDS011;23841;48.524;1.342;2024-01-15T08:37:35;16.38;;;8.45;;
38034;SDS011;23841;48.524;1.342;2024-01-15T08:40:01;15.32;;;7.70;;
38034;SDS011;23841;48.524;1.342;2024-01-15T08:42:27;14.15;;;6.70;;
38034;SDS011;23841;48.524;1.342;2024-01-15T08:44:52;12.73;;;6.93;;
38034;SDS011;23841;48.524;1.342;2024-01-15T08:47:17;14.73;;;7.78;;
38034;SDS011;23841;48.524;1.342;2024-01-15T08:49:43;13.15;;;6.70;;
38034;SDS011;23841;48.524;1.342;2024-01-15T08:52:10;10.70;;;5.85;;
38034;SDS011;23841;48.524;1.342;2024-01-15T08:54:35;12.98;;;7.00;;
38034;SDS011;23841;48.524;1.342;2024-01-15T08:57:01;12.77;;;6.72;;
38034;SDS011;23841;48.524;1.342;2024-01-15T08:59:26;11.05;;;6.10;;
38034;SDS011;23841;48.524;1.342;2024-01-15T09:01:52;13.00;;;7.15;;
38034;SDS011;23841;48.524;1.342;2024-01-15T09:04:18;13.23;;;6.97;;
38034;SDS011;23841;48.524;1.342;2024-01-15T09:06:47;13.20;;;6.35;;
38034;SDS011;23841;48.524;1.342;2024-01-15T09:09:13;14.05;;;7.32;;
38034;SDS011;23841;48.524;1.342;2024-01-15T09:11:41;12.93;;;7.03;;
38034;SDS011;23841;48.524;1.342;2024-01-15T09:14:07;12.63;;;6.55;;
38034;SDS011;23841;48.524;1.342;2024-01-15T09:16:34;10.82;;;5.85;;
38034;SDS011;23841;48.524;1.342;2024-01-15T09:18:59;10.63;;;5.70;;
38034;SDS011;23841;48.524;1.342;2024-01-15T09:21:25;12.35;;;6.40;;
38034;SDS011;23841;48.524;1.342;2024-01-15T09:23:51;11.00;;;5.90;;
38034;SDS011;23841;48.524;1.342;2024-01-15T09:26:16;12.32;;;5.65;;
38034;SDS011;23841;48.524;1.342;2024-01-15T09:28:42;11.48;;;6.00;;
38034;SDS011;23841;48.524;1.342;2024-01-15T09:31:07;13.52;;;6.65;;
38034;SDS011;23841;48.524;1.342;2024-01-15T09:33:33;11.38;;;6.15;;
38034;SDS011;23841;48.524;1.342;2024-01-15T09:36:04;11.02;;;6.63;;
38034;SDS011;23841;48.524;1.342;2024-01-15T09:38:30;15.32;;;7.05;;
38034;SDS011;23841;48.524;1.342;2024-01-15T09:40:56;11.95;;;6.22;;
38034;SDS011;23841;48.524;1.342;2024-01-15T09:43:22;11.05;;;5.68;;
38034;SDS011;23841;48.524;1.342;2024-01-15T09:45:48;11.40;;;6.05;;
38034;SDS011;23841;48.524;1.342;2024-01-15T09:48:14;12.95;;;6.05;;
38034;SDS011;23841;48.524;1.342;2024-01-15T09:50:40;11.52;;;6.47;;
38034;SDS011;23841;48.524;1.342;2024-01-15T09:53:05;11.52;;;5.75;;
38034;SDS011;23841;48.524;1.342;2024-01-15T09:55:31;11.02;;;5.93;;
38034;SDS011;23841;48.524;1.342;2024-01-15T09:57:57;10.15;;;5.60;;
38034;SDS011;23841;48.524;1.342;2024-01-15T10:00:28;11.43;;;5.63;;
38034;SDS011;23841;48.524;1.342;2024-01-15T10:02:56;9.23;;;4.97;;
38034;SDS011;23841;48.524;1.342;2024-01-15T10:05:21;9.82;;;5.30;;
38034;SDS011;23841;48.524;1.342;2024-01-15T10:07:47;9.75;;;5.22;;
38034;SDS011;23841;48.524;1.342;2024-01-15T10:10:15;11.85;;;5.63;;
38034;SDS011;23841;48.524;1.342;2024-01-15T10:12:40;10.65;;;6.32;;
38034;SDS011;23841;48.524;1.342;2024-01-15T10:15:10;10.63;;;5.63;;
38034;SDS011;23841;48.524;1.342;2024-01-15T10:17:37;12.00;;;5.85;;
38034;SDS011;23841;48.524;1.342;2024-01-15T10:20:07;10.45;;;5.35;;
38034;SDS011;23841;48.524;1.342;2024-01-15T10:22:37;11.38;;;5.85;;
38034;SDS011;23841;48.524;1.342;2024-01-15T10:25:05;10.93;;;5.40;;
38034;SDS011;23841;48.524;1.342;2024-01-15T10:27:31;11.93;;;5.35;;
38034;SDS011;23841;48.524;1.342;2024-01-15T10:29:59;11.18;;;5.15;;
38034;SDS011;23841;48.524;1.342;2024-01-15T10:32:25;11.82;;;5.90;;
38034;SDS011;23841;48.524;1.342;2024-01-15T10:34:52;12.13;;;5.60;;
38034;SDS011;23841;48.524;1.342;2024-01-15T10:37:18;11.95;;;5.03;;
38034;SDS011;23841;48.524;1.342;2024-01-15T10:39:43;10.18;;;5.30;;
38034;SDS011;23841;48.524;1.342;2024-01-15T10:42:09;11.35;;;5.63;;
38034;SDS011;23841;48.524;1.342;2024-01-15T10:44:34;10.43;;;5.60;;
38034;SDS011;23841;48.524;1.342;2024-01-15T10:47:00;10.13;;;5.13;;
38034;SDS011;23841;48.524;1.342;2024-01-15T10:49:25;9.52;;;4.80;;
38034;SDS011;23841;48.524;1.342;2024-01-15T10:51:53;8.95;;;4.85;;
38034;SDS011;23841;48.524;1.342;2024-01-15T10:54:19;8.80;;;4.63;;
38034;SDS011;23841;48.524;1.342;2024-01-15T10:56:46;8.52;;;4.50;;
38034;SDS011;23841;48.524;1.342;2024-01-15T10:59:14;10.18;;;5.20;;
38034;SDS011;23841;48.524;1.342;2024-01-15T11:01:41;8.95;;;5.03;;
38034;SDS011;23841;48.524;1.342;2024-01-15T11:04:08;9.73;;;4.70;;
38034;SDS011;23841;48.524;1.342;2024-01-15T11:06:44;11.95;;;5.22;;
38034;SDS011;23841;48.524;1.342;2024-01-15T11:09:11;9.55;;;4.80;;
38034;SDS011;23841;48.524;1.342;2024-01-15T11:11:40;9.15;;;4.80;;
38034;SDS011;23841;48.524;1.342;2024-01-15T11:17:00;11.18;;;4.43;;
38034;SDS011;23841;48.524;1.342;2024-01-15T11:19:26;9.52;;;4.82;;
38034;SDS011;23841;48.524;1.342;2024-01-15T11:22:07;10.07;;;4.68;;
38034;SDS011;23841;48.524;1.342;2024-01-15T11:24:34;12.50;;;4.75;;
38034;SDS011;23841;48.524;1.342;2024-01-15T11:27:06;11.10;;;4.45;;
38034;SDS011;23841;48.524;1.342;2024-01-15T11:29:36;7.65;;;4.15;;
38034;SDS011;23841;48.524;1.342;2024-01-15T11:32:05;8.45;;;4.43;;
38034;SDS011;23841;48.524;1.342;2024-01-15T11:34:52;7.88;;;4.18;;
38034;SDS011;23841;48.524;1.342;2024-01-15T11:37:26;7.43;;;4.07;;
38034;SDS011;23841;48.524;1.342;2024-01-15T11:39:52;6.90;;;4.05;;
38034;SDS011;23841;48.524;1.342;2024-01-15T11:42:19;7.15;;;4.00;;
38034;SDS011;23841;48.524;1.342;2024-01-15T11:44:46;6.82;;;3.50;;
38034;SDS011;23841;48.524;1.342;2024-01-15T11:47:12;7.63;;;3.50;;
38034;SDS011;23841;48.524;1.342;2024-01-15T11:52:31;6.30;;;3.03;;
38034;SDS011;23841;48.524;1.342;2024-01-15T11:57:25;6.25;;;3.00;;
38034;SDS011;23841;48.524;1.342;2024-01-15T12:00:08;6.82;;;3.22;;
38034;SDS011;23841;48.524;1.342;2024-01-15T12:02:35;5.78;;;2.90;;
38034;SDS011;23841;48.524;1.342;2024-01-15T12:05:01;5.75;;;2.42;;
38034;SDS011;23841;48.524;1.342;2024-01-15T12:07:26;8.00;;;3.30;;
38034;SDS011;23841;48.524;1.342;2024-01-15T12:09:52;5.03;;;2.30;;
38034;SDS011;23841;48.524;1.342;2024-01-15T12:12:22;6.93;;;3.17;;
38034;SDS011;23841;48.524;1.342;2024-01-15T12:14:53;5.32;;;2.38;;
38034;SDS011;23841;48.524;1.342;2024-01-15T12:17:18;5.53;;;2.33;;
38034;SDS011;23841;48.524;1.342;2024-01-15T12:19:44;4.82;;;2.25;;
38034;SDS011;23841;48.524;1.342;2024-01-15T12:22:09;4.75;;;2.22;;
38034;SDS011;23841;48.524;1.342;2024-01-15T12:24:35;6.57;;;2.35;;
38034;SDS011;23841;48.524;1.342;2024-01-15T12:27:01;5.43;;;2.10;;
38034;SDS011;23841;48.524;1.342;2024-01-15T12:29:27;4.40;;;1.92;;
38034;SDS011;23841;48.524;1.342;2024-01-15T12:31:53;4.25;;;2.00;;
38034;SDS011;23841;48.524;1.342;2024-01-15T12:34:18;4.45;;;2.00;;
38034;SDS011;23841;48.524;1.342;2024-01-15T12:36:48;5.53;;;2.00;;
38034;SDS011;23841;48.524;1.342;2024-01-15T12:39:13;3.47;;;1.80;;
38034;SDS011;23841;48.524;1.342;2024-01-15T12:41:39;3.08;;;1.70;;
38034;SDS011;23841;48.524;1.342;2024-01-15T12:44:04;3.30;;;1.40;;
38034;SDS011;23841;48.524;1.342;2024-01-15T12:46:30;3.45;;;1.58;;
38034;SDS011;23841;48.524;1.342;2024-01-15T12:48:56;3.22;;;1.38;;
38034;SDS011;23841;48.524;1.342;2024-01-15T12:51:25;3.38;;;1.38;;
38034;SDS011;23841;48.524;1.342;2024-01-15T12:53:51;3.70;;;1.35;;
38034;SDS011;23841;48.524;1.342;2024-01-15T12:56:17;2.40;;;1.10;;
38034;SDS011;23841;48.524;1.342;2024-01-15T12:58:42;4.25;;;1.17;;
38034;SDS011;23841;48.524;1.342;2024-01-15T13:01:08;4.07;;;1.20;;
38034;SDS011;23841;48.524;1.342;2024-01-15T13:03:33;3.30;;;1.27;;
38034;SDS011;23841;48.524;1.342;2024-01-15T13:05:58;4.43;;;1.40;;
38034;SDS011;23841;48.524;1.342;2024-01-15T13:08:24;2.72;;;1.30;;
38034;SDS011;23841;48.524;1.342;2024-01-15T13:10:52;4.40;;;1.35;;
38034;SDS011;23841;48.524;1.342;2024-01-15T13:13:21;4.22;;;1.40;;
38034;SDS011;23841;48.524;1.342;2024-01-15T13:15:46;3.45;;;1.20;;
38034;SDS011;23841;48.524;1.342;2024-01-15T13:18:12;3.58;;;1.10;;
38034;SDS011;23841;48.524;1.342;2024-01-15T13:20:37;3.25;;;1.10;;
38034;SDS011;23841;48.524;1.342;2024-01-15T13:23:03;2.10;;;1.10;;
38034;SDS011;23841;48.524;1.342;2024-01-15T13:25:29;2.78;;;1.00;;
38034;SDS011;23841;48.524;1.342;2024-01-15T13:27:55;2.78;;;1.10;;
38034;SDS011;23841;48.524;1.342;2024-01-15T13:30:20;2.03;;;1.10;;
38034;SDS011;23841;48.524;1.342;2024-01-15T13:32:46;4.65;;;1.20;;
38034;SDS011;23841;48.524;1.342;2024-01-15T13:35:12;2.92;;;1.15;;
38034;SDS011;23841;48.524;1.342;2024-01-15T13:37:38;2.13;;;0.95;;
38034;SDS011;23841;48.524;1.342;2024-01-15T13:40:07;3.88;;;1.52;;
38034;SDS011;23841;48.524;1.342;2024-01-15T13:42:34;3.20;;;1.10;;
38034;SDS011;23841;48.524;1.342;2024-01-15T13:45:04;2.90;;;1.05;;
38034;SDS011;23841;48.524;1.342;2024-01-15T13:47:31;3.35;;;1.10;;
38034;SDS011;23841;48.524;1.342;2024-01-15T13:49:56;3.28;;;1.05;;
38034;SDS011;23841;48.524;1.342;2024-01-15T13:52:22;3.67;;;1.20;;
38034;SDS011;23841;48.524;1.342;2024-01-15T13:54:47;2.50;;;0.93;;
38034;SDS011;23841;48.524;1.342;2024-01-15T13:57:13;2.20;;;0.93;;
38034;SDS011;23841;48.524;1.342;2024-01-15T13:59:38;2.70;;;0.85;;
38034;SDS011;23841;48.524;1.342;2024-01-15T14:02:04;2.15;;;0.95;;
38034;SDS011;23841;48.524;1.342;2024-01-15T14:04:30;4.95;;;1.27;;
38034;SDS011;23841;48.524;1.342;2024-01-15T14:06:55;2.13;;;1.02;;
38034;SDS011;23841;48.524;1.342;2024-01-15T14:09:21;2.45;;;0.85;;
38034;SDS011;23841;48.524;1.342;2024-01-15T14:11:47;2.47;;;1.10;;
38034;SDS011;23841;48.524;1.342;2024-01-15T14:14:12;3.53;;;1.20;;
38034;SDS011;23841;48.524;1.342;2024-01-15T14:16:39;3.67;;;1.00;;
38034;SDS011;23841;48.524;1.342;2024-01-15T14:19:04;2.05;;;0.98;;
38034;SDS011;23841;48.524;1.342;2024-01-15T14:21:31;2.22;;;1.10;;
38034;SDS011;23841;48.524;1.342;2024-01-15T14:23:56;2.42;;;1.23;;
38034;SDS011;23841;48.524;1.342;2024-01-15T14:26:22;3.33;;;1.00;;
38034;SDS011;23841;48.524;1.342;2024-01-15T14:28:47;2.60;;;1.25;;
38034;SDS011;23841;48.524;1.342;2024-01-15T14:31:13;2.67;;;1.02;;
38034;SDS011;23841;48.524;1.342;2024-01-15T14:33:39;2.50;;;1.20;;
38034;SDS011;23841;48.524;1.342;2024-01-15T14:36:04;2.85;;;0.88;;
38034;SDS011;23841;48.524;1.342;2024-01-15T14:38:30;2.67;;;0.90;;
38034;SDS011;23841;48.524;1.342;2024-01-15T14:40:55;2.10;;;1.00;;